sensor_id;sensor_type;location;lat;lon;timestamp;P1;durP1;ratioP1;P2;durP2;ratioP2
18146;SDS011;9199;48.832;9.182;2022-08-01T00:01:07;3.87;;;1.80;;
18146;SDS011;9199;48.832;9.182;2022-08-01T00:03:34;5.10;;;1.90;;
18146;SDS011;9199;48.832;9.182;2022-08-01T00:06:02;4.93;;;2.05;;
18146;SDS011;9199;48.832;9.182;2022-08-01T00:08:29;6.45;;;2.10;;
18146;SDS011;9199;48.832;9.182;2022-08-01T00:10:56;4.65;;;2.42;;
18146;SDS011;9199;48.832;9.182;2022-08-01T00:13:23;4.50;;;1.93;;
18146;SDS011;9199;48.832;9.182;2022-08-01T00:15:49;4.95;;;2.33;;
18146;SDS011;9199;48.832;9.182;2022-08-01T00:18:16;3.95;;;2.10;;
18146;SDS011;9199;48.832;9.182;2022-08-01T00:20:43;3.67;;;1.73;;
18146;SDS011;9199;48.832;9.182;2022-08-01T00:23:11;3.47;;;1.90;;
18146;SDS011;9199;48.832;9.182;2022-08-01T00:25:38;3.83;;;2.00;;
18146;SDS011;9199;48.832;9.182;2022-08-01T00:28:05;4.30;;;2.17;;
18146;SDS011;9199;48.832;9.182;2022-08-01T00:30:33;3.92;;;2.10;;
18146;SDS011;9199;48.832;9.182;2022-08-01T00:33:00;3.72;;;1.88;;
18146;SDS011;9199;48.832;9.182;2022-08-01T00:35:27;4.07;;;2.00;;
18146;SDS011;9199;48.832;9.182;2022-08-01T00:37:53;4.27;;;2.07;;
18146;SDS011;9199;48.832;9.182;2022-08-01T00:40:22;4.22;;;1.95;;
18146;SDS011;9199;48.832;9.182;2022-08-01T00:42:49;4.55;;;2.20;;
18146;SDS011;9199;48.832;9.182;2022-08-01T00:45:15;3.83;;;1.85;;
18146;SDS011;9199;48.832;9.182;2022-08-01T00:47:42;4.57;;;2.10;;
18146;SDS011;9199;48.832;9.182;2022-08-01T00:50:09;3.60;;;1.73;;
18146;SDS011;9199;48.832;9.182;2022-08-01T00:52:37;4.00;;;2.22;;
18146;SDS011;9199;48.832;9.182;2022-08-01T00:55:05;4.35;;;2.10;;
18146;SDS011;9199;48.832;9.182;2022-08-01T00:57:34;3.92;;;2.00;;
18146;SDS011;9199;48.832;9.182;2022-08-01T01:00:02;4.28;;;2.17;;
18146;SDS011;9199;48.832;9.182;2022-08-01T01:02:30;4.83;;;2.20;;
18146;SDS011;9199;48.832;9.182;2022-08-01T01:04:57;5.00;;;2.03;;
18146;SDS011;9199;48.832;9.182;2022-08-01T01:07:27;3.78;;;2.08;;
18146;SDS011;9199;48.832;9.182;2022-08-01T01:10:03;4.63;;;2.22;;
18146;SDS011;9199;48.832;9.182;2022-08-01T01:12:38;4.32;;;2.00;;
18146;SDS011;9199;48.832;9.182;2022-08-01T01:15:11;3.53;;;2.23;;
18146;SDS011;9199;48.832;9.182;2022-08-01T01:17:45;4.45;;;2.30;;
18146;SDS011;9199;48.832;9.182;2022-08-01T01:20:18;4.20;;;2.30;;
18146;SDS011;9199;48.832;9.182;2022-08-01T01:23:00;4.22;;;2.38;;
18146;SDS011;9199;48.832;9.182;2022-08-01T01:25:46;4.82;;;2.20;;
18146;SDS011;9199;48.832;9.182;2022-08-01T01:28:25;3.97;;;1.93;;
18146;SDS011;9199;48.832;9.182;2022-08-01T01:31:01;4.22;;;2.20;;
18146;SDS011;9199;48.832;9.182;2022-08-01T01:33:32;4.30;;;2.50;;
18146;SDS011;9199;48.832;9.182;2022-08-01T01:36:01;4.88;;;2.20;;
18146;SDS011;9199;48.832;9.182;2022-08-01T01:38:32;4.20;;;2.40;;
18146;SDS011;9199;48.832;9.182;2022-08-01T01:41:02;4.43;;;2.23;;
18146;SDS011;9199;48.832;9.182;2022-08-01T01:43:31;5.38;;;2.40;;
18146;SDS011;9199;48.832;9.182;2022-08-01T01:45:59;5.85;;;2.30;;
18146;SDS011;9199;48.832;9.182;2022-08-01T01:48:28;5.30;;;2.35;;
18146;SDS011;9199;48.832;9.182;2022-08-01T01:50:55;4.13;;;2.40;;
18146;SDS011;9199;48.832;9.182;2022-08-01T01:53:23;4.50;;;2.33;;
18146;SDS011;9199;48.832;9.182;2022-08-01T01:55:53;4.70;;;2.20;;
18146;SDS011;9199;48.832;9.182;2022-08-01T01:58:22;4.47;;;2.50;;
18146;SDS011;9199;48.832;9.182;2022-08-01T02:00:50;4.90;;;2.25;;
18146;SDS011;9199;48.832;9.182;2022-08-01T02:03:20;3.83;;;2.10;;
18146;SDS011;9199;48.832;9.182;2022-08-01T02:05:48;4.53;;;2.20;;
18146;SDS011;9199;48.832;9.182;2022-08-01T02:08:16;5.75;;;2.40;;
18146;SDS011;9199;48.832;9.182;2022-08-01T02:10:44;5.68;;;2.28;;
18146;SDS011;9199;48.832;9.182;2022-08-01T02:13:32;5.55;;;2.30;;
18146;SDS011;9199;48.832;9.182;2022-08-01T02:16:00;5.30;;;2.55;;
18146;SDS011;9199;48.832;9.182;2022-08-01T02:18:29;4.40;;;2.37;;
18146;SDS011;9199;48.832;9.182;2022-08-01T02:20:56;4.13;;;2.40;;
18146;SDS011;9199;48.832;9.182;2022-08-01T02:23:25;5.15;;;2.72;;
18146;SDS011;9199;48.832;9.182;2022-08-01T02:25:57;4.55;;;2.30;;
18146;SDS011;9199;48.832;9.182;2022-08-01T02:28:28;4.82;;;2.63;;
18146;SDS011;9199;48.832;9.182;2022-08-01T02:30:59;4.77;;;2.40;;
18146;SDS011;9199;48.832;9.182;2022-08-01T02:33:34;4.57;;;2.40;;
18146;SDS011;9199;48.832;9.182;2022-08-01T02:36:04;3.92;;;2.40;;
18146;SDS011;9199;48.832;9.182;2022-08-01T02:38:33;3.80;;;2.40;;
18146;SDS011;9199;48.832;9.182;2022-08-01T02:41:03;3.80;;;2.30;;
18146;SDS011;9199;48.832;9.182;2022-08-01T02:43:33;4.40;;;2.03;;
18146;SDS011;9199;48.832;9.182;2022-08-01T02:46:02;4.10;;;2.45;;
18146;SDS011;9199;48.832;9.182;2022-08-01T02:48:33;4.30;;;2.50;;
18146;SDS011;9199;48.832;9.182;2022-08-01T02:51:02;4.85;;;2.35;;
18146;SDS011;9199;48.832;9.182;2022-08-01T02:53:31;4.20;;;2.25;;
18146;SDS011;9199;48.832;9.182;2022-08-01T02:56:02;4.03;;;2.40;;
18146;SDS011;9199;48.832;9.182;2022-08-01T02:58:30;4.65;;;2.40;;
18146;SDS011;9199;48.832;9.182;2022-08-01T03:00:59;4.30;;;2.47;;
18146;SDS011;9199;48.832;9.182;2022-08-01T03:03:28;5.50;;;2.47;;
18146;SDS011;9199;48.832;9.182;2022-08-01T03:05:57;5.07;;;2.70;;
18146;SDS011;9199;48.832;9.182;2022-08-01T03:08:25;3.80;;;2.40;;
18146;SDS011;9199;48.832;9.182;2022-08-01T03:10:53;3.90;;;2.25;;
18146;SDS011;9199;48.832;9.182;2022-08-01T03:13:21;4.20;;;2.45;;
18146;SDS011;9199;48.832;9.182;2022-08-01T03:15:49;5.00;;;2.50;;
18146;SDS011;9199;48.832;9.182;2022-08-01T03:18:18;5.03;;;2.55;;
18146;SDS011;9199;48.832;9.182;2022-08-01T03:20:48;4.87;;;2.47;;
18146;SDS011;9199;48.832;9.182;2022-08-01T03:23:17;4.13;;;2.33;;
18146;SDS011;9199;48.832;9.182;2022-08-01T03:25:46;4.63;;;2.20;;
18146;SDS011;9199;48.832;9.182;2022-08-01T03:28:15;4.20;;;2.42;;
18146;SDS011;9199;48.832;9.182;2022-08-01T03:30:42;5.35;;;2.90;;
18146;SDS011;9199;48.832;9.182;2022-08-01T03:33:11;4.70;;;2.53;;
18146;SDS011;9199;48.832;9.182;2022-08-01T03:35:39;4.55;;;2.33;;
18146;SDS011;9199;48.832;9.182;2022-08-01T03:38:10;4.47;;;2.45;;
18146;SDS011;9199;48.832;9.182;2022-08-01T03:40:41;4.70;;;2.60;;
18146;SDS011;9199;48.832;9.182;2022-08-01T03:43:15;4.00;;;2.33;;
18146;SDS011;9199;48.832;9.182;2022-08-01T03:45:46;4.67;;;2.50;;
18146;SDS011;9199;48.832;9.182;2022-08-01T03:48:16;4.30;;;2.33;;
18146;SDS011;9199;48.832;9.182;2022-08-01T03:50:45;5.38;;;2.60;;
18146;SDS011;9199;48.832;9.182;2022-08-01T03:53:14;4.93;;;2.70;;
18146;SDS011;9199;48.832;9.182;2022-08-01T03:55:47;4.30;;;2.38;;
18146;SDS011;9199;48.832;9.182;2022-08-01T03:58:15;4.73;;;2.40;;
18146;SDS011;9199;48.832;9.182;2022-08-01T04:00:43;5.15;;;2.45;;
18146;SDS011;9199;48.832;9.182;2022-08-01T04:03:10;4.38;;;2.53;;
18146;SDS011;9199;48.832;9.182;2022-08-01T04:05:39;5.05;;;2.40;;
18146;SDS011;9199;48.832;9.182;2022-08-01T04:08:07;4.28;;;2.35;;
18146;SDS011;9199;48.832;9.182;2022-08-01T04:10:33;5.10;;;2.40;;
18146;SDS011;9199;48.832;9.182;2022-08-01T04:13:02;5.15;;;2.35;;
18146;SDS011;9199;48.832;9.182;2022-08-01T04:15:29;5.22;;;2.50;;
18146;SDS011;9199;48.832;9.182;2022-08-01T04:17:55;3.95;;;2.25;;
18146;SDS011;9199;48.832;9.182;2022-08-01T04:20:22;4.68;;;2.30;;
18146;SDS011;9199;48.832;9.182;2022-08-01T04:22:49;5.47;;;2.50;;
18146;SDS011;9199;48.832;9.182;2022-08-01T04:25:17;4.20;;;2.30;;
18146;SDS011;9199;48.832;9.182;2022-08-01T04:27:48;5.05;;;2.65;;
18146;SDS011;9199;48.832;9.182;2022-08-01T04:30:17;4.30;;;2.00;;
18146;SDS011;9199;48.832;9.182;2022-08-01T04:32:47;4.43;;;2.20;;
18146;SDS011;9199;48.832;9.182;2022-08-01T04:35:16;3.93;;;2.23;;
18146;SDS011;9199;48.832;9.182;2022-08-01T04:37:45;5.57;;;2.28;;
18146;SDS011;9199;48.832;9.182;2022-08-01T04:40:16;4.63;;;2.40;;
18146;SDS011;9199;48.832;9.182;2022-08-01T04:42:43;4.15;;;2.15;;
18146;SDS011;9199;48.832;9.182;2022-08-01T04:45:10;4.50;;;2.08;;
18146;SDS011;9199;48.832;9.182;2022-08-01T04:47:39;4.90;;;2.13;;
18146;SDS011;9199;48.832;9.182;2022-08-01T04:50:07;4.22;;;2.20;;
18146;SDS011;9199;48.832;9.182;2022-08-01T04:52:35;5.28;;;2.10;;
18146;SDS011;9199;48.832;9.182;2022-08-01T04:55:03;4.90;;;2.05;;
18146;SDS011;9199;48.832;9.182;2022-08-01T04:57:32;5.03;;;2.30;;
18146;SDS011;9199;48.832;9.182;2022-08-01T05:00:00;5.27;;;1.80;;
18146;SDS011;9199;48.832;9.182;2022-08-01T05:02:28;3.92;;;2.05;;
18146;SDS011;9199;48.832;9.182;2022-08-01T05:04:57;4.00;;;1.80;;
18146;SDS011;9199;48.832;9.182;2022-08-01T05:07:23;4.00;;;2.00;;
18146;SDS011;9199;48.832;9.182;2022-08-01T05:09:50;4.45;;;2.20;;
18146;SDS011;9199;48.832;9.182;2022-08-01T05:12:17;4.13;;;1.90;;
18146;SDS011;9199;48.832;9.182;2022-08-01T05:14:44;4.93;;;2.05;;
18146;SDS011;9199;48.832;9.182;2022-08-01T05:17:11;3.85;;;1.90;;
18146;SDS011;9199;48.832;9.182;2022-08-01T05:19:38;3.92;;;2.00;;
18146;SDS011;9199;48.832;9.182;2022-08-01T05:22:07;5.90;;;2.10;;
18146;SDS011;9199;48.832;9.182;2022-08-01T05:24:36;3.20;;;1.90;;
18146;SDS011;9199;48.832;9.182;2022-08-01T05:27:04;3.67;;;1.80;;
18146;SDS011;9199;48.832;9.182;2022-08-01T05:29:31;4.05;;;1.70;;
18146;SDS011;9199;48.832;9.182;2022-08-01T05:31:58;3.85;;;1.85;;
18146;SDS011;9199;48.832;9.182;2022-08-01T05:34:25;3.40;;;1.73;;
18146;SDS011;9199;48.832;9.182;2022-08-01T05:36:52;4.97;;;1.80;;
18146;SDS011;9199;48.832;9.182;2022-08-01T05:39:20;3.45;;;1.80;;
18146;SDS011;9199;48.832;9.182;2022-08-01T05:41:47;3.70;;;1.90;;
18146;SDS011;9199;48.832;9.182;2022-08-01T05:44:14;4.78;;;1.95;;
18146;SDS011;9199;48.832;9.182;2022-08-01T05:46:41;4.55;;;1.70;;
18146;SDS011;9199;48.832;9.182;2022-08-01T05:49:08;3.23;;;1.57;;
18146;SDS011;9199;48.832;9.182;2022-08-01T05:51:34;3.85;;;1.50;;
18146;SDS011;9199;48.832;9.182;2022-08-01T05:54:01;3.17;;;1.45;;
18146;SDS011;9199;48.832;9.182;2022-08-01T05:56:30;5.05;;;1.88;;
18146;SDS011;9199;48.832;9.182;2022-08-01T05:58:56;6.30;;;1.80;;
18146;SDS011;9199;48.832;9.182;2022-08-01T06:01:23;3.10;;;1.60;;
18146;SDS011;9199;48.832;9.182;2022-08-01T06:03:50;4.03;;;1.73;;
18146;SDS011;9199;48.832;9.182;2022-08-01T06:06:19;2.95;;;1.58;;
18146;SDS011;9199;48.832;9.182;2022-08-01T06:08:46;3.50;;;1.65;;
18146;SDS011;9199;48.832;9.182;2022-08-01T06:11:12;3.30;;;1.52;;
18146;SDS011;9199;48.832;9.182;2022-08-01T06:13:41;3.07;;;1.43;;
18146;SDS011;9199;48.832;9.182;2022-08-01T06:16:07;4.00;;;1.50;;
18146;SDS011;9199;48.832;9.182;2022-08-01T06:18:34;3.20;;;1.40;;
18146;SDS011;9199;48.832;9.182;2022-08-01T06:21:01;3.20;;;1.38;;
18146;SDS011;9199;48.832;9.182;2022-08-01T06:23:28;3.22;;;1.50;;
18146;SDS011;9199;48.832;9.182;2022-08-01T06:25:55;3.83;;;1.57;;
18146;SDS011;9199;48.832;9.182;2022-08-01T06:28:23;2.85;;;1.52;;
18146;SDS011;9199;48.832;9.182;2022-08-01T06:30:51;3.83;;;1.50;;
18146;SDS011;9199;48.832;9.182;2022-08-01T06:33:18;3.80;;;1.58;;
18146;SDS011;9199;48.832;9.182;2022-08-01T06:35:45;3.10;;;1.42;;
18146;SDS011;9199;48.832;9.182;2022-08-01T06:38:12;3.37;;;1.40;;
18146;SDS011;9199;48.832;9.182;2022-08-01T06:40:39;3.67;;;1.40;;
18146;SDS011;9199;48.832;9.182;2022-08-01T06:43:06;3.83;;;1.40;;
18146;SDS011;9199;48.832;9.182;2022-08-01T06:45:32;4.53;;;1.45;;
18146;SDS011;9199;48.832;9.182;2022-08-01T06:48:03;3.55;;;1.30;;
18146;SDS011;9199;48.832;9.182;2022-08-01T06:50:30;2.53;;;1.20;;
18146;SDS011;9199;48.832;9.182;2022-08-01T06:52:57;3.05;;;1.20;;
18146;SDS011;9199;48.832;9.182;2022-08-01T06:55:24;2.70;;;1.20;;
18146;SDS011;9199;48.832;9.182;2022-08-01T06:57:51;2.40;;;1.30;;
18146;SDS011;9199;48.832;9.182;2022-08-01T07:00:18;2.60;;;1.23;;
18146;SDS011;9199;48.832;9.182;2022-08-01T07:02:47;3.43;;;1.20;;
18146;SDS011;9199;48.832;9.182;2022-08-01T07:05:15;3.20;;;1.40;;
18146;SDS011;9199;48.832;9.182;2022-08-01T07:07:42;3.65;;;1.40;;
18146;SDS011;9199;48.832;9.182;2022-08-01T07:10:09;3.65;;;1.50;;
18146;SDS011;9199;48.832;9.182;2022-08-01T07:12:36;4.13;;;1.40;;
18146;SDS011;9199;48.832;9.182;2022-08-01T07:15:05;3.17;;;1.30;;
18146;SDS011;9199;48.832;9.182;2022-08-01T07:17:35;5.18;;;1.40;;
18146;SDS011;9199;48.832;9.182;2022-08-01T07:20:03;4.13;;;1.42;;
18146;SDS011;9199;48.832;9.182;2022-08-01T07:22:32;3.53;;;1.35;;
18146;SDS011;9199;48.832;9.182;2022-08-01T07:24:59;4.57;;;1.30;;
18146;SDS011;9199;48.832;9.182;2022-08-01T07:27:26;3.07;;;1.20;;
18146;SDS011;9199;48.832;9.182;2022-08-01T07:29:53;2.70;;;1.20;;
18146;SDS011;9199;48.832;9.182;2022-08-01T07:32:19;4.05;;;1.17;;
18146;SDS011;9199;48.832;9.182;2022-08-01T07:34:46;4.30;;;1.08;;
18146;SDS011;9199;48.832;9.182;2022-08-01T07:37:13;5.13;;;1.40;;
18146;SDS011;9199;48.832;9.182;2022-08-01T07:39:41;4.70;;;1.40;;
18146;SDS011;9199;48.832;9.182;2022-08-01T07:42:08;3.10;;;1.33;;
18146;SDS011;9199;48.832;9.182;2022-08-01T07:44:35;3.40;;;1.48;;
18146;SDS011;9199;48.832;9.182;2022-08-01T07:47:02;3.28;;;1.30;;
18146;SDS011;9199;48.832;9.182;2022-08-01T07:49:29;3.25;;;1.40;;
18146;SDS011;9199;48.832;9.182;2022-08-01T07:51:56;2.87;;;1.30;;
18146;SDS011;9199;48.832;9.182;2022-08-01T07:54:23;3.08;;;1.30;;
18146;SDS011;9199;48.832;9.182;2022-08-01T07:56:54;3.40;;;1.30;;
18146;SDS011;9199;48.832;9.182;2022-08-01T07:59:21;3.63;;;1.13;;
18146;SDS011;9199;48.832;9.182;2022-08-01T08:01:48;3.25;;;1.45;;
18146;SDS011;9199;48.832;9.182;2022-08-01T08:04:15;3.33;;;1.40;;
18146;SDS011;9199;48.832;9.182;2022-08-01T08:06:42;3.60;;;1.38;;
18146;SDS011;9199;48.832;9.182;2022-08-01T08:09:09;3.65;;;1.75;;
18146;SDS011;9199;48.832;9.182;2022-08-01T08:11:36;7.78;;;2.10;;
18146;SDS011;9199;48.832;9.182;2022-08-01T08:14:04;7.22;;;2.00;;
18146;SDS011;9199;48.832;9.182;2022-08-01T08:16:31;4.80;;;1.30;;
18146;SDS011;9199;48.832;9.182;2022-08-01T08:18:58;3.10;;;1.33;;
18146;SDS011;9199;48.832;9.182;2022-08-01T08:21:24;3.35;;;1.30;;
18146;SDS011;9199;48.832;9.182;2022-08-01T08:23:52;3.45;;;1.33;;
18146;SDS011;9199;48.832;9.182;2022-08-01T08:26:36;3.97;;;1.60;;
18146;SDS011;9199;48.832;9.182;2022-08-01T08:29:05;4.30;;;1.40;;
18146;SDS011;9199;48.832;9.182;2022-08-01T08:31:31;5.05;;;1.88;;
18146;SDS011;9199;48.832;9.182;2022-08-01T08:33:58;3.85;;;1.50;;
18146;SDS011;9199;48.832;9.182;2022-08-01T08:36:25;3.95;;;1.48;;
18146;SDS011;9199;48.832;9.182;2022-08-01T08:38:52;3.33;;;1.40;;
18146;SDS011;9199;48.832;9.182;2022-08-01T08:41:19;3.30;;;1.50;;
18146;SDS011;9199;48.832;9.182;2022-08-01T08:43:47;4.13;;;1.50;;
18146;SDS011;9199;48.832;9.182;2022-08-01T08:46:16;4.38;;;1.50;;
18146;SDS011;9199;48.832;9.182;2022-08-01T08:48:44;3.90;;;1.38;;
18146;SDS011;9199;48.832;9.182;2022-08-01T08:51:11;3.85;;;1.50;;
18146;SDS011;9199;48.832;9.182;2022-08-01T08:53:39;4.83;;;1.60;;
18146;SDS011;9199;48.832;9.182;2022-08-01T08:56:08;4.82;;;1.60;;
18146;SDS011;9199;48.832;9.182;2022-08-01T08:58:38;3.63;;;1.70;;
18146;SDS011;9199;48.832;9.182;2022-08-01T09:01:06;5.28;;;1.80;;
18146;SDS011;9199;48.832;9.182;2022-08-01T09:03:35;5.53;;;2.15;;
18146;SDS011;9199;48.832;9.182;2022-08-01T09:06:02;4.07;;;1.70;;
18146;SDS011;9199;48.832;9.182;2022-08-01T09:08:29;4.82;;;1.90;;
18146;SDS011;9199;48.832;9.182;2022-08-01T09:10:56;4.18;;;2.20;;
18146;SDS011;9199;48.832;9.182;2022-08-01T09:13:23;3.58;;;1.67;;
18146;SDS011;9199;48.832;9.182;2022-08-01T09:15:51;5.13;;;1.90;;
18146;SDS011;9199;48.832;9.182;2022-08-01T09:18:26;4.67;;;1.70;;
18146;SDS011;9199;48.832;9.182;2022-08-01T09:21:12;3.97;;;1.70;;
18146;SDS011;9199;48.832;9.182;2022-08-01T09:23:42;3.83;;;1.70;;
18146;SDS011;9199;48.832;9.182;2022-08-01T09:26:11;4.47;;;1.75;;
18146;SDS011;9199;48.832;9.182;2022-08-01T09:28:38;4.63;;;2.00;;
18146;SDS011;9199;48.832;9.182;2022-08-01T09:31:10;4.80;;;2.00;;
18146;SDS011;9199;48.832;9.182;2022-08-01T09:33:51;4.97;;;2.20;;
18146;SDS011;9199;48.832;9.182;2022-08-01T09:36:21;5.60;;;2.40;;
18146;SDS011;9199;48.832;9.182;2022-08-01T09:38:49;4.97;;;2.30;;
18146;SDS011;9199;48.832;9.182;2022-08-01T09:41:17;4.68;;;2.45;;
18146;SDS011;9199;48.832;9.182;2022-08-01T09:43:54;4.60;;;2.50;;
18146;SDS011;9199;48.832;9.182;2022-08-01T09:46:20;4.57;;;2.55;;
18146;SDS011;9199;48.832;9.182;2022-08-01T09:48:57;6.28;;;2.92;;
18146;SDS011;9199;48.832;9.182;2022-08-01T09:51:30;5.72;;;2.80;;
18146;SDS011;9199;48.832;9.182;2022-08-01T09:53:58;4.57;;;2.70;;
18146;SDS011;9199;48.832;9.182;2022-08-01T09:56:25;5.13;;;2.80;;
18146;SDS011;9199;48.832;9.182;2022-08-01T09:58:53;5.70;;;2.95;;
18146;SDS011;9199;48.832;9.182;2022-08-01T10:01:21;6.45;;;3.22;;
18146;SDS011;9199;48.832;9.182;2022-08-01T10:04:03;4.63;;;2.85;;
18146;SDS011;9199;48.832;9.182;2022-08-01T10:06:37;8.60;;;3.38;;
18146;SDS011;9199;48.832;9.182;2022-08-01T10:09:04;7.83;;;3.43;;
18146;SDS011;9199;48.832;9.182;2022-08-01T10:11:31;5.03;;;2.97;;
18146;SDS011;9199;48.832;9.182;2022-08-01T10:14:02;4.85;;;3.03;;
18146;SDS011;9199;48.832;9.182;2022-08-01T10:16:29;4.88;;;2.58;;
18146;SDS011;9199;48.832;9.182;2022-08-01T10:18:58;5.03;;;2.53;;
18146;SDS011;9199;48.832;9.182;2022-08-01T10:21:25;5.90;;;2.33;;
18146;SDS011;9199;48.832;9.182;2022-08-01T10:23:55;4.55;;;2.40;;
18146;SDS011;9199;48.832;9.182;2022-08-01T10:26:24;4.20;;;2.10;;
18146;SDS011;9199;48.832;9.182;2022-08-01T10:28:52;5.18;;;2.33;;
18146;SDS011;9199;48.832;9.182;2022-08-01T10:31:20;4.57;;;2.05;;
18146;SDS011;9199;48.832;9.182;2022-08-01T10:33:47;4.57;;;1.97;;
18146;SDS011;9199;48.832;9.182;2022-08-01T10:36:15;4.93;;;2.00;;
18146;SDS011;9199;48.832;9.182;2022-08-01T10:38:44;4.25;;;2.30;;
18146;SDS011;9199;48.832;9.182;2022-08-01T10:41:13;4.95;;;2.20;;
18146;SDS011;9199;48.832;9.182;2022-08-01T10:43:41;5.60;;;2.30;;
18146;SDS011;9199;48.832;9.182;2022-08-01T10:46:08;4.07;;;1.97;;
18146;SDS011;9199;48.832;9.182;2022-08-01T10:48:38;3.53;;;2.10;;
18146;SDS011;9199;48.832;9.182;2022-08-01T10:51:09;3.78;;;2.00;;
18146;SDS011;9199;48.832;9.182;2022-08-01T10:53:35;5.00;;;2.00;;
18146;SDS011;9199;48.832;9.182;2022-08-01T10:56:12;3.60;;;2.10;;
18146;SDS011;9199;48.832;9.182;2022-08-01T10:58:41;5.47;;;2.20;;
18146;SDS011;9199;48.832;9.182;2022-08-01T11:01:13;3.83;;;2.13;;
18146;SDS011;9199;48.832;9.182;2022-08-01T11:03:56;4.55;;;2.30;;
18146;SDS011;9199;48.832;9.182;2022-08-01T11:06:25;6.10;;;2.25;;
18146;SDS011;9199;48.832;9.182;2022-08-01T11:08:54;4.63;;;2.20;;
18146;SDS011;9199;48.832;9.182;2022-08-01T11:11:24;4.07;;;2.07;;
18146;SDS011;9199;48.832;9.182;2022-08-01T11:14:01;3.50;;;2.00;;
18146;SDS011;9199;48.832;9.182;2022-08-01T11:16:33;3.95;;;1.98;;
18146;SDS011;9199;48.832;9.182;2022-08-01T11:19:01;3.72;;;2.00;;
18146;SDS011;9199;48.832;9.182;2022-08-01T11:27:25;4.20;;;2.00;;
18146;SDS011;9199;48.832;9.182;2022-08-01T11:32:51;5.13;;;2.25;;
18146;SDS011;9199;48.832;9.182;2022-08-01T11:35:20;5.30;;;2.30;;
18146;SDS011;9199;48.832;9.182;2022-08-01T11:37:48;4.20;;;2.30;;
18146;SDS011;9199;48.832;9.182;2022-08-01T11:40:17;3.63;;;2.40;;
18146;SDS011;9199;48.832;9.182;2022-08-01T11:42:46;3.80;;;2.40;;
18146;SDS011;9199;48.832;9.182;2022-08-01T11:45:13;4.38;;;2.17;;
18146;SDS011;9199;48.832;9.182;2022-08-01T11:47:44;4.38;;;1.90;;
18146;SDS011;9199;48.832;9.182;2022-08-01T11:50:31;4.37;;;1.97;;
18146;SDS011;9199;48.832;9.182;2022-08-01T11:53:03;5.90;;;1.95;;
18146;SDS011;9199;48.832;9.182;2022-08-01T11:55:31;3.35;;;2.03;;
18146;SDS011;9199;48.832;9.182;2022-08-01T11:58:01;3.75;;;2.28;;
18146;SDS011;9199;48.832;9.182;2022-08-01T12:00:30;4.22;;;2.22;;
18146;SDS011;9199;48.832;9.182;2022-08-01T12:02:58;4.03;;;2.70;;
18146;SDS011;9199;48.832;9.182;2022-08-01T12:05:26;4.35;;;2.40;;
18146;SDS011;9199;48.832;9.182;2022-08-01T12:07:54;4.85;;;2.40;;
18146;SDS011;9199;48.832;9.182;2022-08-01T12:10:22;3.47;;;2.25;;
18146;SDS011;9199;48.832;9.182;2022-08-01T12:12:51;3.60;;;2.35;;
18146;SDS011;9199;48.832;9.182;2022-08-01T12:15:22;5.27;;;2.40;;
18146;SDS011;9199;48.832;9.182;2022-08-01T12:17:50;4.68;;;2.20;;
18146;SDS011;9199;48.832;9.182;2022-08-01T12:20:22;4.35;;;2.33;;
18146;SDS011;9199;48.832;9.182;2022-08-01T12:22:52;4.05;;;2.33;;
18146;SDS011;9199;48.832;9.182;2022-08-01T12:25:20;4.18;;;2.20;;
18146;SDS011;9199;48.832;9.182;2022-08-01T12:27:47;5.93;;;2.00;;
18146;SDS011;9199;48.832;9.182;2022-08-01T12:30:15;3.63;;;1.88;;
18146;SDS011;9199;48.832;9.182;2022-08-01T12:32:45;4.05;;;1.92;;
18146;SDS011;9199;48.832;9.182;2022-08-01T12:35:13;5.78;;;2.47;;
18146;SDS011;9199;48.832;9.182;2022-08-01T12:37:42;4.68;;;2.13;;
18146;SDS011;9199;48.832;9.182;2022-08-01T12:40:12;3.20;;;2.00;;
18146;SDS011;9199;48.832;9.182;2022-08-01T12:42:41;4.03;;;2.05;;
18146;SDS011;9199;48.832;9.182;2022-08-01T12:45:09;3.10;;;2.00;;
18146;SDS011;9199;48.832;9.182;2022-08-01T12:47:38;5.40;;;2.20;;
18146;SDS011;9199;48.832;9.182;2022-08-01T12:50:07;3.17;;;2.08;;
18146;SDS011;9199;48.832;9.182;2022-08-01T12:52:37;4.63;;;2.03;;
18146;SDS011;9199;48.832;9.182;2022-08-01T12:55:07;4.88;;;2.20;;
18146;SDS011;9199;48.832;9.182;2022-08-01T12:57:36;5.20;;;2.30;;
18146;SDS011;9199;48.832;9.182;2022-08-01T13:00:10;3.95;;;2.30;;
18146;SDS011;9199;48.832;9.182;2022-08-01T13:02:42;4.95;;;2.20;;
18146;SDS011;9199;48.832;9.182;2022-08-01T13:05:11;4.40;;;2.30;;
18146;SDS011;9199;48.832;9.182;2022-08-01T13:07:43;4.43;;;2.30;;
18146;SDS011;9199;48.832;9.182;2022-08-01T13:10:12;5.18;;;2.28;;
18146;SDS011;9199;48.832;9.182;2022-08-01T13:12:40;3.95;;;2.10;;
18146;SDS011;9199;48.832;9.182;2022-08-01T13:18:22;4.77;;;2.07;;
18146;SDS011;9199;48.832;9.182;2022-08-01T13:26:41;4.38;;;1.90;;
18146;SDS011;9199;48.832;9.182;2022-08-01T13:29:09;3.35;;;1.60;;
18146;SDS011;9199;48.832;9.182;2022-08-01T13:31:38;4.90;;;2.00;;
18146;SDS011;9199;48.832;9.182;2022-08-01T13:34:05;4.27;;;1.77;;
18146;SDS011;9199;48.832;9.182;2022-08-01T13:36:32;3.90;;;1.90;;
18146;SDS011;9199;48.832;9.182;2022-08-01T13:39:00;5.20;;;1.80;;
18146;SDS011;9199;48.832;9.182;2022-08-01T13:41:46;4.55;;;1.70;;
18146;SDS011;9199;48.832;9.182;2022-08-01T13:44:13;3.50;;;1.60;;
18146;SDS011;9199;48.832;9.182;2022-08-01T13:46:40;2.80;;;1.60;;
18146;SDS011;9199;48.832;9.182;2022-08-01T13:49:09;3.00;;;1.60;;
18146;SDS011;9199;48.832;9.182;2022-08-01T13:51:37;3.85;;;1.73;;
18146;SDS011;9199;48.832;9.182;2022-08-01T13:54:04;4.43;;;1.70;;
18146;SDS011;9199;48.832;9.182;2022-08-01T13:56:32;3.78;;;1.60;;
18146;SDS011;9199;48.832;9.182;2022-08-01T13:59:00;5.40;;;2.10;;
18146;SDS011;9199;48.832;9.182;2022-08-01T14:01:27;6.43;;;2.20;;
18146;SDS011;9199;48.832;9.182;2022-08-01T14:03:54;5.18;;;1.85;;
18146;SDS011;9199;48.832;9.182;2022-08-01T14:06:21;3.78;;;2.00;;
18146;SDS011;9199;48.832;9.182;2022-08-01T14:08:48;4.20;;;1.98;;
18146;SDS011;9199;48.832;9.182;2022-08-01T14:11:15;4.23;;;1.90;;
18146;SDS011;9199;48.832;9.182;2022-08-01T14:13:42;8.98;;;2.10;;
18146;SDS011;9199;48.832;9.182;2022-08-01T14:16:10;4.68;;;1.90;;
18146;SDS011;9199;48.832;9.182;2022-08-01T14:18:37;4.60;;;1.77;;
18146;SDS011;9199;48.832;9.182;2022-08-01T14:21:04;3.13;;;1.83;;
18146;SDS011;9199;48.832;9.182;2022-08-01T14:23:31;4.83;;;2.00;;
18146;SDS011;9199;48.832;9.182;2022-08-01T14:25:58;6.07;;;2.10;;
18146;SDS011;9199;48.832;9.182;2022-08-01T14:28:24;5.85;;;3.33;;
18146;SDS011;9199;48.832;9.182;2022-08-01T14:30:52;5.78;;;2.80;;
18146;SDS011;9199;48.832;9.182;2022-08-01T14:33:21;4.97;;;2.50;;
18146;SDS011;9199;48.832;9.182;2022-08-01T14:35:48;4.67;;;2.30;;
18146;SDS011;9199;48.832;9.182;2022-08-01T14:38:15;3.72;;;2.28;;
18146;SDS011;9199;48.832;9.182;2022-08-01T14:40:42;4.18;;;2.10;;
18146;SDS011;9199;48.832;9.182;2022-08-01T14:43:11;4.30;;;2.00;;
18146;SDS011;9199;48.832;9.182;2022-08-01T14:45:38;3.20;;;1.83;;
18146;SDS011;9199;48.832;9.182;2022-08-01T14:48:05;4.60;;;2.00;;
18146;SDS011;9199;48.832;9.182;2022-08-01T14:50:33;4.93;;;2.00;;
18146;SDS011;9199;48.832;9.182;2022-08-01T14:53:00;3.33;;;1.80;;
18146;SDS011;9199;48.832;9.182;2022-08-01T14:55:27;4.22;;;1.90;;
18146;SDS011;9199;48.832;9.182;2022-08-01T14:57:53;3.65;;;1.80;;
18146;SDS011;9199;48.832;9.182;2022-08-01T15:00:20;4.53;;;1.70;;
18146;SDS011;9199;48.832;9.182;2022-08-01T15:02:47;3.50;;;1.70;;
18146;SDS011;9199;48.832;9.182;2022-08-01T15:05:14;5.15;;;1.80;;
18146;SDS011;9199;48.832;9.182;2022-08-01T15:07:42;5.07;;;2.10;;
18146;SDS011;9199;48.832;9.182;2022-08-01T15:10:09;4.53;;;1.90;;
18146;SDS011;9199;48.832;9.182;2022-08-01T15:12:36;4.33;;;1.67;;
18146;SDS011;9199;48.832;9.182;2022-08-01T15:15:03;3.60;;;1.80;;
18146;SDS011;9199;48.832;9.182;2022-08-01T15:17:30;4.00;;;1.65;;
18146;SDS011;9199;48.832;9.182;2022-08-01T15:19:58;4.30;;;1.92;;
18146;SDS011;9199;48.832;9.182;2022-08-01T15:22:27;4.20;;;1.88;;
18146;SDS011;9199;48.832;9.182;2022-08-01T15:24:56;3.93;;;1.80;;
18146;SDS011;9199;48.832;9.182;2022-08-01T15:27:24;3.78;;;1.90;;